Time;durP1;ratioP1;P1;durP2;ratioP2;P2;SDS_P1;SDS_P2;PMS_P1;PMS_P2;Temp;Humidity;BMP_temperature;BMP_pressure;BME280_temperature;BME280_humidity;BME280_pressure;Samples;Min_cycle;Max_cycle;Signal;HPM_P1;HPM_P2
2022/12/17 13:06:56;;;;;;;15.77;12.80;;;23.00;27.40;;;;;;5038461;28;20032;-57
2022/12/17 13:09:29;;;;;;;17.10;14.75;;;23.00;27.40;;;;;;5036512;28;20425;-55
2022/12/17 13:12:04;;;;;;;16.52;12.68;;;23.00;27.30;;;;;;5052606;28;20096;-60
2022/12/17 13:14:52;;;;;;;14.43;12.57;;;23.00;27.20;;;;;;5037938;28;20045;-60
2022/12/17 13:17:54;;;;;;;15.30;13.23;;;23.00;27.10;;;;;;5038261;28;20417;-60
2022/12/17 13:20:36;;;;;;;15.27;12.52;;;23.10;27.20;;;;;;5042310;28;20067;-61
2022/12/17 13:23:15;;;;;;;13.95;12.52;;;23.10;27.10;;;;;;5034510;28;20040;-61
2022/12/17 13:25:46;;;;;;;15.15;13.15;;;23.10;27.00;;;;;;5027812;28;20115;-62
2022/12/17 13:28:31;;;;;;;15.55;12.93;;;23.10;27.00;;;;;;5053357;28;20360;-59
2022/12/17 13:31:30;;;;;;;14.55;11.93;;;23.10;26.90;;;;;;5036557;28;20037;-62
2022/12/17 13:34:16;;;;;;;14.68;12.30;;;23.10;26.80;;;;;;5040430;28;20045;-61
2022/12/17 13:37:07;;;;;;;13.63;11.23;;;23.20;26.80;;;;;;5053900;28;20036;-59
2022/12/17 13:39:36;;;;;;;13.80;11.73;;;23.20;26.70;;;;;;5054367;28;20044;-61
2022/12/17 13:42:04;;;;;;;13.18;11.50;;;23.20;26.60;;;;;;5037042;28;20044;-60
2022/12/17 13:44:53;;;;;;;14.05;12.07;;;23.20;26.60;;;;;;5054085;28;20399;-62
2022/12/17 13:47:24;;;;;;;13.90;11.77;;;23.30;26.60;;;;;;5054265;28;20033;-55
2022/12/17 13:49:55;;;;;;;16.88;13.50;;;23.30;26.50;;;;;;5036513;28;20116;-62
2022/12/17 13:52:27;;;;;;;15.77;13.90;;;23.30;26.60;;;;;;5050197;28;20500;-63
2022/12/17 13:55:28;;;;;;;16.08;14.32;;;23.30;26.70;;;;;;5049051;28;20040;-63
2022/12/17 13:57:56;;;;;;;18.70;14.00;;;23.30;26.70;;;;;;5049900;28;20082;-61
2022/12/17 14:00:30;;;;;;;14.68;12.57;;;23.40;26.70;;;;;;5052499;28;20071;-62
2022/12/17 14:02:56;;;;;;;14.07;12.25;;;23.40;26.60;;;;;;5052426;28;20117;-62
2022/12/17 14:05:41;;;;;;;17.35;13.07;;;23.40;26.60;;;;;;5045987;28;20035;-62
2022/12/17 14:08:11;;;;;;;13.55;11.95;;;23.40;26.50;;;;;;5033703;28;20036;-61
2022/12/17 14:12:20;;;;;;;16.08;12.63;;;23.50;26.40;;;;;;5017502;28;20036;-62
2022/12/17 14:13:41;;;;;;;16.48;13.57;;;23.50;26.50;;;;;;5035871;28;20469;-64
2022/12/17 14:16:07;;;;;;;17.15;13.43;;;23.50;26.70;;;;;;5031386;28;20485;-61
2022/12/17 14:18:46;;;;;;;16.95;13.00;;;23.50;26.80;;;;;;5032784;28;20037;-62
2022/12/17 14:21:17;;;;;;;14.98;12.90;;;23.60;26.80;;;;;;5033105;28;20061;-61
2022/12/17 14:23:51;;;;;;;16.10;12.73;;;23.60;26.80;;;;;;5025997;28;20127;-61
2022/12/17 14:26:20;;;;;;;14.50;12.60;;;23.60;26.70;;;;;;5013908;28;20038;-63
2022/12/17 14:28:58;;;;;;;14.48;12.30;;;23.60;26.60;;;;;;5020590;28;20088;-62
2022/12/17 14:31:29;;;;;;;15.50;12.73;;;23.60;26.50;;;;;;5030976;28;20025;-63
2022/12/17 14:34:12;;;;;;;13.50;11.75;;;23.60;26.50;;;;;;5031782;28;20025;-62
2022/12/17 14:36:46;;;;;;;14.02;12.15;;;23.60;26.50;;;;;;5032970;28;20104;-61
2022/12/17 14:39:32;;;;;;;14.07;12.50;;;23.60;26.50;;;;;;5029522;28;20113;-63
2022/12/17 14:42:25;;;;;;;13.40;11.45;;;23.60;26.40;;;;;;5019716;28;20030;-60
2022/12/17 14:45:06;;;;;;;13.65;11.65;;;23.60;26.40;;;;;;5016714;28;20030;-62
2022/12/17 14:47:36;;;;;;;13.20;11.80;;;23.60;26.40;;;;;;5033110;28;20032;-62
2022/12/17 14:50:10;;;;;;;13.55;11.40;;;23.60;26.30;;;;;;5025447;28;20109;-57
2022/12/17 14:52:52;;;;;;;13.68;12.18;;;23.60;26.30;;;;;;5033522;28;20052;-59
2022/12/17 14:55:31;;;;;;;12.55;11.15;;;23.60;26.30;;;;;;5035834;28;20318;-57
2022/12/17 14:58:17;;;;;;;13.40;12.00;;;23.60;26.20;;;;;;5037280;28;20033;-58
2022/12/17 15:00:54;;;;;;;13.05;11.45;;;23.60;26.10;;;;;;5036975;28;20449;-58
2022/12/17 15:03:28;;;;;;;12.70;11.13;;;23.60;26.10;;;;;;5033492;28;20121;-57
2022/12/17 15:05:58;;;;;;;14.18;11.52;;;23.60;26.00;;;;;;5036139;28;20120;-55
2022/12/17 15:08:24;;;;;;;13.35;11.57;;;23.50;26.10;;;;;;5037171;28;20041;-56
2022/12/17 15:10:50;;;;;;;13.40;12.00;;;23.50;26.10;;;;;;5036899;28;20033;-59
2022/12/17 15:13:15;;;;;;;14.55;11.55;;;23.50;26.00;;;;;;5035363;28;20422;-59
2022/12/17 15:15:41;;;;;;;18.77;11.90;;;23.50;26.00;;;;;;5035837;28;20191;-55
2022/12/17 15:18:10;;;;;;;18.88;12.65;;;23.50;26.00;;;;;;5036406;28;20449;-58
2022/12/17 15:20:36;;;;;;;14.48;12.43;;;23.50;26.10;;;;;;5035615;28;20048;-59
2022/12/17 15:23:02;;;;;;;19.17;12.40;;;23.50;26.00;;;;;;5035406;28;20120;-61
2022/12/17 15:25:29;;;;;;;21.13;12.05;;;23.50;26.40;;;;;;5036401;28;20044;-59
2022/12/17 15:27:55;;;;;;;16.35;12.90;;;23.50;27.10;;;;;;5035749;28;20025;-57
2022/12/17 15:30:21;;;;;;;15.27;12.55;;;23.50;27.50;;;;;;5035397;28;20414;-55
2022/12/17 15:32:47;;;;;;;16.08;12.20;;;23.50;27.30;;;;;;5033915;28;20018;-56
2022/12/17 15:35:13;;;;;;;15.20;13.10;;;23.50;27.10;;;;;;5036211;28;20056;-60
2022/12/17 15:37:39;;;;;;;14.77;12.68;;;23.50;26.90;;;;;;5035695;28;20344;-61
2022/12/17 15:40:06;;;;;;;15.70;12.38;;;23.50;26.70;;;;;;5035263;28;20029;-58
2022/12/17 15:45:16;;;;;;;18.70;12.90;;;23.50;26.40;;;;;;5035503;28;20033;-60
2022/12/17 15:47:42;;;;;;;13.57;11.63;;;23.50;26.30;;;;;;5036729;28;20115;-57
2022/12/17 15:50:08;;;;;;;14.30;12.30;;;23.50;26.20;;;;;;5030763;28;20030;-56
2022/12/17 15:52:34;;;;;;;14.93;12.27;;;23.40;26.10;;;;;;5027944;28;20049;-58
2022/12/17 15:55:00;;;;;;;17.33;12.75;;;23.40;26.10;;;;;;5035903;28;20044;-59
2022/12/17 15:57:26;;;;;;;14.10;11.73;;;23.40;26.00;;;;;;5035877;28;20036;-57
2022/12/17 15:59:52;;;;;;;14.32;12.82;;;23.40;26.00;;;;;;5022324;28;20041;-62
2022/12/17 16:02:17;;;;;;;16.02;12.23;;;23.30;25.90;;;;;;5016051;28;20030;-61
2022/12/17 16:04:43;;;;;;;14.75;12.45;;;23.30;26.10;;;;;;5034740;28;20116;-59
2022/12/17 16:07:09;;;;;;;13.85;11.48;;;23.30;26.20;;;;;;5035623;28;20037;-57
2022/12/17 16:09:35;;;;;;;15.23;12.07;;;23.30;26.30;;;;;;5035860;28;20033;-55
2022/12/17 16:12:01;;;;;;;13.63;11.60;;;23.30;26.30;;;;;;5035699;28;20033;-56
2022/12/17 16:14:26;;;;;;;15.80;12.65;;;23.30;26.30;;;;;;5034667;28;20052;-59
2022/12/17 16:16:52;;;;;;;14.38;12.20;;;23.30;26.20;;;;;;5053015;28;20342;-60
2022/12/17 16:19:21;;;;;;;14.63;12.00;;;23.30;26.20;;;;;;5036503;28;20032;-59
2022/12/17 16:21:47;;;;;;;17.10;12.80;;;23.30;26.30;;;;;;5050187;28;20085;-54
2022/12/17 16:24:13;;;;;;;15.23;13.07;;;23.30;26.70;;;;;;5030665;28;20108;-57
2022/12/17 16:26:39;;;;;;;15.68;12.32;;;23.30;26.90;;;;;;5049514;28;20029;-58
2022/12/17 16:29:05;;;;;;;15.85;11.75;;;23.30;27.10;;;;;;5040288;28;20404;-55
2022/12/17 16:31:32;;;;;;;17.50;13.32;;;23.20;27.80;;;;;;5036037;28;20044;-59
2022/12/17 16:33:57;;;;;;;13.90;12.05;;;23.20;27.60;;;;;;5045553;28;20033;-58
2022/12/17 16:36:23;;;;;;;14.40;12.32;;;23.20;27.70;;;;;;5054888;28;20099;-54
2022/12/17 16:38:52;;;;;;;15.23;12.05;;;23.20;27.80;;;;;;5053411;28;20059;-58
2022/12/17 16:41:19;;;;;;;14.77;12.00;;;23.20;27.90;;;;;;5054341;28;20073;-58
2022/12/17 16:43:46;;;;;;;15.27;12.93;;;23.20;28.00;;;;;;5054346;28;20028;-59
2022/12/17 16:46:28;;;;;;;15.52;12.50;;;23.20;28.10;;;;;;5048275;28;20063;-58
2022/12/17 16:48:56;;;;;;;17.23;12.45;;;23.20;28.10;;;;;;5035221;28;20037;-57
2022/12/17 16:51:24;;;;;;;15.15;12.13;;;23.10;28.20;;;;;;5053068;28;20028;-57
2022/12/17 16:53:50;;;;;;;16.13;13.20;;;23.10;28.20;;;;;;5020700;28;20029;-57
2022/12/17 16:56:19;;;;;;;15.32;13.27;;;23.20;28.30;;;;;;5041839;28;20407;-58
2022/12/17 16:58:46;;;;;;;16.73;13.75;;;23.20;28.30;;;;;;5055148;28;20432;-54
2022/12/17 17:01:12;;;;;;;16.08;13.40;;;23.10;28.30;;;;;;5037008;28;20104;-55
2022/12/17 17:03:42;;;;;;;16.05;13.27;;;23.10;28.40;;;;;;5054124;28;20032;-59
2022/12/17 17:06:09;;;;;;;16.98;13.25;;;23.10;28.50;;;;;;5052567;28;20036;-59
2022/12/17 17:08:36;;;;;;;16.98;12.88;;;23.10;28.60;;;;;;5049142;28;20028;-54
2022/12/17 17:11:18;;;;;;;18.30;14.07;;;23.10;28.60;;;;;;5054683;28;20041;-59
2022/12/17 17:13:44;;;;;;;16.70;13.18;;;23.10;28.70;;;;;;5047908;28;20028;-60
2022/12/17 17:16:10;;;;;;;17.40;13.20;;;23.10;28.70;;;;;;5036516;28;20353;-59
2022/12/17 17:18:37;;;;;;;17.90;13.77;;;23.10;28.70;;;;;;5054329;28;20132;-55
2022/12/17 17:21:18;;;;;;;18.80;14.23;;;23.10;28.80;;;;;;5054451;28;20063;-56
2022/12/17 17:23:45;;;;;;;15.27;12.55;;;23.10;28.90;;;;;;5036736;28;20071;-57
2022/12/17 17:26:12;;;;;;;17.35;12.57;;;23.20;28.80;;;;;;5054449;28;20041;-57
2022/12/17 17:28:38;;;;;;;17.70;13.20;;;23.20;28.70;;;;;;5042760;28;20025;-57
2022/12/17 17:31:07;;;;;;;14.43;12.05;;;23.20;28.70;;;;;;5046980;28;20021;-58
2022/12/17 17:33:37;;;;;;;17.38;12.05;;;23.20;28.70;;;;;;5029391;28;20080;-55
2022/12/17 17:36:09;;;;;;;13.40;11.00;;;23.30;28.90;;;;;;5052400;28;20044;-57
2022/12/17 17:38:37;;;;;;;15.88;11.38;;;23.30;29.00;;;;;;5051531;28;20496;-53
2022/12/17 17:41:04;;;;;;;13.93;11.77;;;23.40;29.00;;;;;;5053728;28;20060;-54
2022/12/17 17:43:30;;;;;;;15.45;11.93;;;23.40;29.00;;;;;;5052593;28;20091;-51
2022/12/17 17:46:18;;;;;;;16.20;12.05;;;23.40;29.00;;;;;;5054178;28;20052;-52
2022/12/17 17:48:45;;;;;;;15.38;12.07;;;23.40;28.90;;;;;;5049033;28;20086;-55
2022/12/17 17:51:17;;;;;;;15.90;11.80;;;23.40;28.80;;;;;;5030782;28;20450;-52
2022/12/17 17:53:45;;;;;;;13.95;11.63;;;23.40;28.80;;;;;;5032695;28;20384;-56
2022/12/17 17:56:14;;;;;;;14.52;11.05;;;23.40;28.70;;;;;;5045093;28;20025;-58
2022/12/17 17:58:45;;;;;;;14.80;11.73;;;23.40;28.70;;;;;;5025376;28;20025;-58
2022/12/17 18:01:14;;;;;;;15.80;11.60;;;23.30;28.70;;;;;;5052700;28;20116;-55
2022/12/17 18:03:41;;;;;;;16.92;12.00;;;23.20;28.60;;;;;;5043933;28;20030;-58
2022/12/17 18:06:09;;;;;;;15.70;11.75;;;23.20;28.60;;;;;;5051768;28;20041;-56
2022/12/17 18:08:36;;;;;;;16.33;12.18;;;23.10;28.50;;;;;;5007208;28;20423;-55
2022/12/17 18:11:04;;;;;;;15.82;12.15;;;23.00;28.50;;;;;;5050561;28;20089;-58
2022/12/17 18:16:19;;;;;;;18.17;12.50;;;22.90;28.50;;;;;;5038614;28;20060;-57
2022/12/17 18:18:45;;;;;;;18.85;13.48;;;22.80;28.40;;;;;;5057470;28;20040;-59
2022/12/17 18:21:14;;;;;;;17.38;13.57;;;22.70;28.40;;;;;;5055541;28;20476;-57
2022/12/17 18:23:42;;;;;;;16.80;13.45;;;22.60;28.40;;;;;;5054438;28;20038;-56
2022/12/17 18:26:10;;;;;;;16.63;13.45;;;22.60;28.40;;;;;;5056833;28;20036;-59
2022/12/17 18:28:37;;;;;;;18.30;13.23;;;22.50;28.40;;;;;;5038543;28;20448;-53
2022/12/17 18:31:25;;;;;;;18.58;14.25;;;22.50;28.40;;;;;;5042978;28;20510;-56
2022/12/17 18:33:56;;;;;;;17.02;13.45;;;22.40;28.30;;;;;;5020250;28;20364;-52
2022/12/17 18:36:38;;;;;;;18.90;14.00;;;22.30;28.40;;;;;;5044990;28;20037;-55
2022/12/17 18:39:10;;;;;;;19.15;14.77;;;22.30;28.40;;;;;;5041219;28;20454;-54
2022/12/17 18:44:21;;;;;;;;;;;22.20;28.50;;;;;;5037959;28;20091;-56
2022/12/17 18:46:47;;;;;;;19.85;15.13;;;22.10;28.50;;;;;;5053474;28;19919;-53
2022/12/17 18:49:16;;;;;;;19.23;15.00;;;22.10;28.50;;;;;;5039768;28;20041;-56
2022/12/17 18:51:43;;;;;;;17.90;14.63;;;22.00;28.60;;;;;;5039410;28;20025;-54
2022/12/17 18:54:18;;;;;;;15.88;13.63;;;22.00;28.60;;;;;;5054174;28;20021;-57
2022/12/17 18:56:44;;;;;;;18.25;14.10;;;21.90;28.60;;;;;;5037415;28;20045;-57
2022/12/17 18:59:18;;;;;;;18.48;14.32;;;21.90;28.60;;;;;;5043558;28;20027;-57
2022/12/17 19:01:45;;;;;;;20.13;14.50;;;21.80;28.60;;;;;;5047100;28;20530;-57
2022/12/17 19:04:13;;;;;;;18.63;14.68;;;21.80;28.50;;;;;;5054291;28;20323;-55
2022/12/17 19:06:41;;;;;;;18.90;14.25;;;21.80;28.50;;;;;;5036580;28;20105;-56
2022/12/17 19:09:14;;;;;;;16.60;14.18;;;21.80;28.50;;;;;;5050823;28;20037;-56
2022/12/17 19:11:40;;;;;;;18.10;14.23;;;21.70;28.50;;;;;;5051514;28;20029;-56
2022/12/17 19:14:06;;;;;;;20.10;15.13;;;21.70;28.50;;;;;;5057149;28;20124;-54
2022/12/17 19:16:31;;;;;;;18.33;14.55;;;21.70;28.50;;;;;;5054890;28;20073;-55
2022/12/17 19:19:01;;;;;;;20.67;15.95;;;21.70;28.60;;;;;;5056498;28;20087;-56
2022/12/17 19:21:28;;;;;;;20.00;15.18;;;21.60;28.50;;;;;;5055460;28;20021;-52
2022/12/17 19:23:57;;;;;;;20.20;15.45;;;21.60;28.50;;;;;;5056251;28;20064;-57
2022/12/17 19:26:24;;;;;;;17.65;14.25;;;21.60;28.60;;;;;;5052180;28;20045;-56
2022/12/17 19:28:51;;;;;;;20.95;15.57;;;21.50;28.50;;;;;;5055160;28;20657;-51
2022/12/17 19:31:19;;;;;;;17.05;14.10;;;21.50;28.50;;;;;;5056122;28;20100;-56
2022/12/17 19:33:45;;;;;;;18.70;14.50;;;21.50;28.50;;;;;;5055483;28;20025;-57
2022/12/17 19:36:13;;;;;;;18.45;15.00;;;21.50;28.50;;;;;;5054255;28;20025;-58
2022/12/17 19:38:40;;;;;;;19.52;15.32;;;21.50;28.50;;;;;;5035460;28;20032;-56
2022/12/17 19:41:08;;;;;;;18.17;14.38;;;21.40;28.40;;;;;;5028945;28;20109;-54
2022/12/17 19:43:34;;;;;;;19.73;15.25;;;21.40;28.40;;;;;;5036610;28;20033;-56
2022/12/17 19:46:05;;;;;;;19.08;14.25;;;21.40;28.40;;;;;;5019850;28;20445;-56
2022/12/17 19:48:33;;;;;;;19.13;14.82;;;21.30;28.40;;;;;;5019010;28;20116;-53
2022/12/17 19:50:59;;;;;;;17.85;14.77;;;21.30;28.30;;;;;;5052705;28;20437;-54
2022/12/17 19:53:27;;;;;;;17.17;14.23;;;21.30;28.30;;;;;;5052994;28;20083;-54
2022/12/17 19:55:54;;;;;;;20.50;14.70;;;21.30;28.30;;;;;;5055435;28;20529;-52
2022/12/17 19:58:23;;;;;;;17.88;13.70;;;21.30;28.30;;;;;;5038234;28;20032;-55
2022/12/17 20:00:50;;;;;;;15.95;13.55;;;21.30;28.30;;;;;;5056260;28;20037;-52
2022/12/17 20:03:16;;;;;;;16.25;13.55;;;21.30;28.20;;;;;;5042219;28;20508;-53
2022/12/17 20:05:46;;;;;;;17.48;13.50;;;21.30;28.20;;;;;;5036301;28;20041;-55
2022/12/17 20:08:12;;;;;;;17.42;14.18;;;21.20;28.20;;;;;;5055625;28;20029;-56
2022/12/17 20:10:38;;;;;;;17.15;14.27;;;21.20;28.20;;;;;;5055606;28;20433;-57
2022/12/17 20:13:04;;;;;;;16.48;13.55;;;21.20;28.30;;;;;;5037084;28;20060;-53
2022/12/17 20:15:30;;;;;;;17.92;13.85;;;21.20;28.40;;;;;;5036901;28;20518;-55
2022/12/17 20:17:56;;;;;;;17.38;13.88;;;21.20;28.40;;;;;;5016920;28;20037;-57
2022/12/17 20:20:22;;;;;;;18.17;13.60;;;21.20;28.90;;;;;;5034708;28;20037;-54
2022/12/17 20:22:47;;;;;;;18.50;14.10;;;21.20;28.30;;;;;;5035879;28;20041;-53
2022/12/17 20:25:13;;;;;;;16.85;13.57;;;21.20;28.30;;;;;;5040139;28;20073;-54
2022/12/17 20:27:39;;;;;;;18.70;13.65;;;21.20;28.30;;;;;;5049553;28;20464;-54
2022/12/17 20:30:05;;;;;;;27.88;14.77;;;21.20;28.40;;;;;;5055095;28;20453;-55
2022/12/17 20:32:34;;;;;;;17.52;14.23;;;21.10;28.40;;;;;;5055300;28;20029;-56
2022/12/17 20:35:00;;;;;;;16.65;14.02;;;21.10;28.40;;;;;;5054064;28;20021;-55
2022/12/17 20:37:26;;;;;;;17.92;14.40;;;21.10;28.40;;;;;;5021137;28;20415;-56
2022/12/17 20:39:51;;;;;;;17.15;13.73;;;21.10;28.40;;;;;;5051676;28;20441;-54
2022/12/17 20:42:17;;;;;;;17.13;14.02;;;21.10;28.40;;;;;;5046135;28;20025;-53
2022/12/17 20:44:43;;;;;;;18.88;13.73;;;21.00;28.30;;;;;;5053991;28;20032;-57
2022/12/17 20:47:09;;;;;;;16.95;13.55;;;21.00;28.30;;;;;;5055025;28;20486;-53
2022/12/17 20:49:35;;;;;;;17.20;13.73;;;21.00;28.30;;;;;;5035628;28;20040;-52
2022/12/17 20:52:02;;;;;;;15.75;13.18;;;21.00;28.30;;;;;;5035314;28;20030;-55
2022/12/17 20:54:28;;;;;;;19.30;14.65;;;21.00;28.20;;;;;;5034473;28;20080;-56
2022/12/17 20:56:54;;;;;;;16.35;13.73;;;21.00;28.20;;;;;;5054024;28;20056;-52
2022/12/17 20:59:19;;;;;;;17.05;13.63;;;20.90;28.20;;;;;;5054861;28;20498;-48
2022/12/17 21:01:46;;;;;;;18.98;14.30;;;20.90;28.20;;;;;;5054432;28;20090;-54
2022/12/17 21:04:13;;;;;;;17.60;14.15;;;20.90;28.20;;;;;;5054558;28;20475;-50
2022/12/17 21:06:44;;;;;;;17.67;14.07;;;20.90;28.20;;;;;;5051210;28;20033;-54
2022/12/17 21:09:12;;;;;;;17.05;13.63;;;20.90;28.20;;;;;;5039412;28;20030;-51
2022/12/17 21:11:39;;;;;;;15.57;13.07;;;20.90;28.20;;;;;;5032428;28;20100;-57
2022/12/17 21:14:07;;;;;;;17.17;13.73;;;20.80;28.10;;;;;;5053933;28;20021;-54
2022/12/17 21:16:33;;;;;;;19.10;14.05;;;20.80;28.10;;;;;;5054304;28;20072;-55
2022/12/17 21:19:00;;;;;;;17.90;14.30;;;20.80;28.10;;;;;;5053889;28;20020;-56
2022/12/17 21:21:31;;;;;;;17.67;13.65;;;20.80;28.10;;;;;;5054684;28;20104;-54
2022/12/17 21:23:58;;;;;;;16.52;13.82;;;20.80;28.10;;;;;;5054287;28;20622;-55
2022/12/17 21:26:32;;;;;;;16.90;13.52;;;20.80;28.10;;;;;;5053758;28;20037;-53
2022/12/17 21:28:59;;;;;;;16.15;12.48;;;20.70;28.60;;;;;;5050727;28;20037;-56
2022/12/17 21:31:31;;;;;;;16.55;13.25;;;20.70;28.10;;;;;;5034234;28;20404;-56
2022/12/17 21:33:59;;;;;;;17.05;13.77;;;20.70;28.10;;;;;;5048107;28;20056;-57
2022/12/17 21:36:26;;;;;;;16.85;13.30;;;20.70;28.10;;;;;;5050128;28;20104;-55
2022/12/17 21:38:53;;;;;;;18.08;13.57;;;20.60;28.00;;;;;;5036290;28;20052;-55
2022/12/17 21:41:27;;;;;;;18.25;14.23;;;20.60;28.00;;;;;;5049451;28;20040;-54
2022/12/17 21:43:57;;;;;;;19.58;14.35;;;20.60;28.10;;;;;;5036436;28;20031;-54
2022/12/17 21:46:26;;;;;;;17.95;14.27;;;20.60;28.20;;;;;;5053701;28;20053;-50
2022/12/17 21:48:52;;;;;;;18.23;14.52;;;20.60;28.20;;;;;;5054354;28;20032;-51
2022/12/17 21:51:19;;;;;;;17.70;13.55;;;20.60;28.70;;;;;;5050567;28;20025;-52
2022/12/17 21:53:45;;;;;;;18.20;14.68;;;20.60;28.20;;;;;;5054160;28;20036;-53
2022/12/17 21:56:17;;;;;;;17.15;13.55;;;20.50;28.10;;;;;;5053918;28;20352;-54
2022/12/17 21:58:44;;;;;;;18.48;14.10;;;20.50;28.10;;;;;;5043119;28;20037;-59
2022/12/17 22:01:20;;;;;;;17.42;13.90;;;20.50;28.10;;;;;;5038238;28;20091;-56
2022/12/17 22:03:48;;;;;;;18.00;14.25;;;20.50;28.10;;;;;;5034348;28;20029;-52
2022/12/17 22:06:17;;;;;;;17.98;13.75;;;20.50;28.10;;;;;;5016677;28;20076;-51
2022/12/17 22:08:44;;;;;;;17.05;13.30;;;20.50;28.10;;;;;;5042551;28;20456;-51
2022/12/17 22:11:12;;;;;;;17.38;13.77;;;20.40;28.10;;;;;;5054000;28;20098;-56
2022/12/17 22:16:24;;;;;;;18.02;13.95;;;20.40;28.00;;;;;;5053074;28;20077;-56
2022/12/17 22:18:51;;;;;;;16.63;12.52;;;20.40;28.00;;;;;;5053493;28;20055;-55
2022/12/17 22:21:17;;;;;;;18.85;12.90;;;20.40;28.00;;;;;;5053488;28;20155;-55
2022/12/17 22:23:47;;;;;;;17.05;12.85;;;20.40;28.00;;;;;;5039085;28;20064;-54
2022/12/17 22:26:15;;;;;;;14.93;12.07;;;20.40;28.00;;;;;;5044417;28;20033;-55
2022/12/17 22:28:42;;;;;;;16.85;12.48;;;20.40;28.00;;;;;;5052413;28;20102;-57
2022/12/17 22:33:57;;;;;;;17.23;13.00;;;20.30;27.90;;;;;;5053747;28;20333;-57
2022/12/17 22:36:23;;;;;;;17.23;13.63;;;20.30;27.90;;;;;;5054552;28;20041;-58
2022/12/17 22:38:49;;;;;;;18.67;13.68;;;20.30;27.90;;;;;;5054470;28;20040;-53
2022/12/17 22:44:01;;;;;;;17.90;13.82;;;20.30;28.00;;;;;;5054098;28;20040;-54
2022/12/17 22:46:29;;;;;;;18.25;13.93;;;20.20;28.00;;;;;;5053003;28;20107;-56
2022/12/17 22:48:56;;;;;;;17.52;14.25;;;20.20;28.10;;;;;;5035789;28;20037;-56
2022/12/17 22:51:23;;;;;;;20.42;14.85;;;20.20;28.10;;;;;;5054420;28;20033;-54
2022/12/17 22:53:49;;;;;;;20.40;15.48;;;20.20;28.20;;;;;;5053832;28;20365;-54
2022/12/17 22:56:15;;;;;;;20.38;15.40;;;20.20;28.20;;;;;;5053653;28;20029;-55
2022/12/17 22:58:41;;;;;;;20.20;14.82;;;20.10;28.20;;;;;;5036931;28;20065;-55
2022/12/17 23:01:07;;;;;;;20.02;15.93;;;20.10;28.20;;;;;;5040085;28;20036;-57
2022/12/17 23:03:32;;;;;;;20.70;15.60;;;20.10;28.20;;;;;;5057704;28;20079;-56
2022/12/17 23:06:06;;;;;;;22.02;15.98;;;20.10;28.20;;;;;;5057668;28;20124;-53
2022/12/17 23:08:32;;;;;;;20.30;15.77;;;20.10;28.20;;;;;;5057203;28;20029;-58
2022/12/17 23:10:58;;;;;;;21.58;15.55;;;20.10;28.30;;;;;;5057416;28;20036;-51
2022/12/17 23:13:24;;;;;;;21.02;15.98;;;20.00;28.20;;;;;;5057446;28;20037;-53
2022/12/17 23:15:53;;;;;;;18.73;14.30;;;20.10;28.30;;;;;;5057101;28;20072;-55
2022/12/17 23:18:18;;;;;;;20.50;14.98;;;20.10;28.30;;;;;;5057105;28;20330;-54
2022/12/17 23:20:44;;;;;;;19.58;14.68;;;20.00;28.30;;;;;;5057007;28;20032;-53
2022/12/17 23:23:10;;;;;;;18.58;14.35;;;20.00;28.30;;;;;;5057004;28;20025;-52
2022/12/17 23:25:36;;;;;;;20.08;13.77;;;20.00;28.40;;;;;;5057072;28;20052;-50
2022/12/17 23:28:02;;;;;;;17.23;13.02;;;20.00;28.40;;;;;;5056284;28;20144;-52
2022/12/17 23:30:27;;;;;;;17.23;12.60;;;19.90;28.30;;;;;;5057374;28;20060;-51
2022/12/17 23:32:53;;;;;;;16.80;12.80;;;20.00;28.30;;;;;;5057291;28;20071;-54
2022/12/17 23:35:19;;;;;;;17.05;13.05;;;19.90;28.30;;;;;;5057432;28;20082;-49
2022/12/17 23:37:45;;;;;;;15.85;12.43;;;19.90;28.20;;;;;;5056884;28;20035;-54
2022/12/17 23:40:11;;;;;;;15.95;12.68;;;19.90;28.20;;;;;;5039506;28;20112;-50
2022/12/17 23:42:37;;;;;;;15.35;12.05;;;19.90;28.20;;;;;;5056257;28;20079;-53
2022/12/17 23:45:04;;;;;;;16.13;12.52;;;19.90;28.20;;;;;;5040029;28;20349;-51
2022/12/17 23:47:30;;;;;;;16.58;12.23;;;19.80;28.10;;;;;;5039308;28;20021;-55
2022/12/17 23:49:56;;;;;;;16.13;12.15;;;19.90;28.10;;;;;;5056257;28;20474;-54
2022/12/17 23:52:23;;;;;;;15.70;11.65;;;19.80;28.10;;;;;;5056597;28;20029;-52
2022/12/17 23:54:48;;;;;;;16.20;12.30;;;19.80;28.10;;;;;;5038901;28;20441;-56
2022/12/17 23:57:14;;;;;;;15.15;12.10;;;19.80;28.10;;;;;;5056093;28;20025;-55
2022/12/17 23:59:40;;;;;;;14.98;11.68;;;19.80;28.10;;;;;;5056934;28;20321;-53
